Millsboro, Delaware
Current Conditions -  °F | °C
As of 12:54 AM on Friday 31 Oct 2014 (Local Time) from KGED Reporting Station
Clear Clear  
Wind Chill: 46°   Ceiling: Unl
Heat Index: 46°   Visibility: 10mi
Dew Point: 38°   Wind: 3mph
Humidity: 73%   Direction: 360°N
Pressure: 30.03"   Gusts: NA
Location:  38.59°N, 75.29°W
Report Text: KGED 310454Z AUTO 36003KT 10SM CLR 08/03 A3003 RMK AO2 SLP171 T00780033 401670072 $
Loading
Personal Weather Stations






























Interactive Weather Map
Tropical Storm Tracking
New forecast layout! Learn more

10-Day Weather Forecast

Advertisements
Track Severe Weather on mobile